Time;durP1;ratioP1;P1;durP2;ratioP2;P2;SDS_P1;SDS_P2;PMS_P1;PMS_P2;Temp;Humidity;BMP_temperature;BMP_pressure;BME280_temperature;BME280_humidity;BME280_pressure;Samples;Min_cycle;Max_cycle;Signal;HPM_P1;HPM_P2
2023/09/01 00:00:46;;;;;;;3.00;2.70;;;13.30;99.90;;;;;;5032567;28;20589;-58
2023/09/01 00:03:16;;;;;;;3.97;2.27;;;13.30;99.90;;;;;;5030643;28;20470;-57
2023/09/01 00:05:44;;;;;;;2.90;2.50;;;13.30;99.90;;;;;;5023245;28;20993;-58
2023/09/01 00:08:12;;;;;;;2.60;2.23;;;13.30;99.90;;;;;;5030407;28;20507;-57
2023/09/01 00:10:41;;;;;;;2.70;2.23;;;13.30;99.90;;;;;;5035870;28;20471;-58
2023/09/01 00:13:09;;;;;;;2.77;2.53;;;13.40;99.90;;;;;;5031230;28;20487;-58
2023/09/01 00:15:37;;;;;;;2.73;2.30;;;13.40;99.90;;;;;;5037760;28;20577;-58
2023/09/01 00:18:07;;;;;;;3.83;2.30;;;13.40;99.90;;;;;;5042562;28;20790;-58
2023/09/01 00:20:35;;;;;;;3.13;2.20;;;13.40;99.90;;;;;;5030158;28;20599;-57
2023/09/01 00:23:04;;;;;;;4.17;2.37;;;13.50;99.90;;;;;;5038147;28;20565;-57
2023/09/01 00:25:32;;;;;;;2.90;2.47;;;13.50;99.90;;;;;;5034262;28;20574;-58
2023/09/01 00:28:00;;;;;;;2.67;2.33;;;13.50;99.90;;;;;;5038604;28;20862;-58
2023/09/01 00:30:29;;;;;;;2.37;2.03;;;13.60;99.90;;;;;;5040911;28;20462;-58
2023/09/01 00:32:58;;;;;;;3.37;2.10;;;13.60;99.90;;;;;;5040735;28;20846;-57
2023/09/01 00:35:27;;;;;;;3.50;2.27;;;13.60;99.90;;;;;;5033583;28;20502;-57
2023/09/01 00:37:55;;;;;;;2.20;2.00;;;13.60;99.90;;;;;;5037770;28;20524;-58
2023/09/01 00:40:23;;;;;;;2.83;2.50;;;13.60;99.90;;;;;;5041549;28;20490;-58
2023/09/01 00:42:51;;;;;;;5.47;2.77;;;13.60;99.90;;;;;;5030753;28;20549;-58
2023/09/01 00:45:19;;;;;;;3.00;2.43;;;13.60;99.90;;;;;;5038165;28;20596;-57
2023/09/01 00:47:47;;;;;;;2.57;2.37;;;13.60;99.90;;;;;;5039660;28;20485;-57
2023/09/01 00:50:16;;;;;;;2.50;2.30;;;13.60;99.90;;;;;;5042170;28;20459;-58
2023/09/01 00:52:45;;;;;;;3.67;2.17;;;13.50;99.90;;;;;;5035464;28;20499;-58
2023/09/01 00:55:13;;;;;;;2.60;2.40;;;13.60;99.90;;;;;;5041654;28;20495;-58
2023/09/01 00:57:42;;;;;;;3.93;2.37;;;13.60;99.90;;;;;;5035105;28;20553;-57
2023/09/01 01:00:11;;;;;;;2.47;2.27;;;13.60;99.90;;;;;;5039334;28;20597;-58
2023/09/01 01:02:39;;;;;;;2.57;2.13;;;13.60;99.90;;;;;;5035736;28;20473;-58
2023/09/01 01:05:14;;;;;;;3.40;2.00;;;13.60;99.90;;;;;;5041056;28;20617;-57
2023/09/01 01:07:51;;;;;;;3.43;2.40;;;13.60;99.90;;;;;;5039026;28;20469;-58
2023/09/01 01:10:20;;;;;;;5.50;2.30;;;13.60;99.90;;;;;;5042160;28;20559;-58
2023/09/01 01:12:53;;;;;;;4.40;1.93;;;13.60;99.90;;;;;;5033149;28;20553;-58
2023/09/01 01:15:22;;;;;;;3.67;2.00;;;13.60;99.90;;;;;;5034923;28;20577;-58
2023/09/01 01:17:52;;;;;;;3.00;2.20;;;13.60;99.90;;;;;;5042411;28;20558;-57
2023/09/01 01:20:29;;;;;;;4.97;2.60;;;13.50;99.90;;;;;;5042164;28;20500;-57
2023/09/01 01:23:11;;;;;;;4.03;2.50;;;13.50;99.90;;;;;;5040759;28;20501;-58
2023/09/01 01:25:46;;;;;;;3.57;2.00;;;13.50;99.90;;;;;;5037212;28;21020;-56
2023/09/01 01:28:14;;;;;;;3.27;2.43;;;13.50;99.90;;;;;;5039529;28;20696;-56
2023/09/01 01:30:43;;;;;;;3.17;2.60;;;13.40;99.90;;;;;;5040278;28;20478;-58
2023/09/01 01:33:31;;;;;;;2.60;2.40;;;13.40;99.90;;;;;;5039393;28;20478;-58
2023/09/01 01:36:09;;;;;;;3.90;2.70;;;13.40;99.90;;;;;;5033857;28;20565;-56
2023/09/01 01:38:41;;;;;;;2.77;2.10;;;13.40;99.90;;;;;;5026587;28;20474;-58
2023/09/01 01:41:14;;;;;;;2.37;2.17;;;13.40;99.90;;;;;;5030654;28;20581;-58
2023/09/01 01:43:51;;;;;;;3.00;2.10;;;13.40;99.90;;;;;;5035399;28;20556;-57
2023/09/01 01:46:20;;;;;;;3.03;2.70;;;13.30;99.90;;;;;;5036697;28;20563;-58
2023/09/01 01:48:48;;;;;;;4.37;2.63;;;13.30;99.90;;;;;;5040873;28;20879;-57
2023/09/01 01:51:16;;;;;;;2.27;2.07;;;13.30;99.90;;;;;;5040687;28;20558;-58
2023/09/01 01:53:46;;;;;;;4.23;2.47;;;13.30;99.90;;;;;;5033407;28;20561;-58
2023/09/01 01:56:16;;;;;;;4.10;2.60;;;13.20;99.90;;;;;;5040051;28;20482;-58
2023/09/01 01:58:44;;;;;;;3.93;2.40;;;13.20;99.90;;;;;;5036184;28;20528;-58
2023/09/01 02:01:12;;;;;;;3.37;2.30;;;13.20;99.90;;;;;;5037718;28;20492;-58
2023/09/01 02:03:40;;;;;;;3.20;2.50;;;13.20;99.90;;;;;;5034215;28;20788;-58
2023/09/01 02:06:08;;;;;;;3.40;2.53;;;13.20;99.90;;;;;;5037477;28;20494;-56
2023/09/01 02:08:36;;;;;;;4.00;2.87;;;13.10;99.90;;;;;;5035711;28;20595;-57
2023/09/01 02:11:06;;;;;;;3.77;2.40;;;13.10;99.90;;;;;;5040577;28;20486;-58
2023/09/01 02:13:34;;;;;;;3.17;2.80;;;13.10;99.90;;;;;;5039977;28;20470;-58
2023/09/01 02:16:05;;;;;;;3.13;2.77;;;13.10;99.90;;;;;;5038222;28;20509;-57
2023/09/01 02:18:33;;;;;;;2.90;2.57;;;13.00;99.90;;;;;;5038765;28;20474;-58
2023/09/01 02:21:01;;;;;;;4.50;2.90;;;13.00;99.90;;;;;;5035665;28;20962;-58
2023/09/01 02:23:29;;;;;;;2.87;2.40;;;13.00;99.90;;;;;;5039430;28;20543;-58
2023/09/01 02:25:58;;;;;;;3.47;2.80;;;12.90;99.90;;;;;;5033535;28;20522;-58
2023/09/01 02:28:27;;;;;;;3.67;3.17;;;12.90;99.90;;;;;;5034453;28;20902;-57
2023/09/01 02:30:56;;;;;;;4.43;2.50;;;12.90;99.90;;;;;;5027974;28;20470;-57
2023/09/01 02:33:24;;;;;;;3.33;2.50;;;12.90;99.90;;;;;;5036961;28;20467;-58
2023/09/01 02:36:12;;;;;;;3.40;2.40;;;12.90;99.90;;;;;;5034731;28;20582;-57
2023/09/01 02:38:40;;;;;;;3.60;2.77;;;12.90;99.90;;;;;;5036902;28;20576;-58
2023/09/01 02:41:08;;;;;;;3.70;3.10;;;12.90;99.90;;;;;;5034708;28;21043;-57
2023/09/01 02:43:37;;;;;;;3.23;2.50;;;12.90;99.90;;;;;;5026766;28;20553;-58
2023/09/01 02:46:05;;;;;;;3.13;2.93;;;12.80;99.90;;;;;;5036220;28;20886;-58
2023/09/01 02:48:33;;;;;;;3.50;2.77;;;12.90;99.90;;;;;;5036686;28;20561;-58
2023/09/01 02:51:01;;;;;;;4.50;3.20;;;12.80;99.90;;;;;;5040261;28;20469;-58
2023/09/01 02:53:29;;;;;;;3.43;2.73;;;12.80;99.90;;;;;;5038857;28;20982;-58
2023/09/01 02:55:57;;;;;;;2.90;2.57;;;12.80;99.90;;;;;;5034508;28;20514;-57
2023/09/01 02:58:26;;;;;;;3.77;3.37;;;12.80;99.90;;;;;;5029604;28;20482;-58
2023/09/01 03:00:55;;;;;;;3.50;3.20;;;12.80;99.90;;;;;;5030496;28;20484;-58
2023/09/01 03:03:24;;;;;;;2.90;2.60;;;12.80;99.90;;;;;;5038500;28;20816;-58
2023/09/01 03:05:52;;;;;;;6.17;2.87;;;12.80;99.90;;;;;;5035042;28;20521;-57
2023/09/01 03:08:21;;;;;;;5.37;3.20;;;12.80;99.90;;;;;;5036523;28;20931;-57
2023/09/01 03:10:50;;;;;;;3.33;2.93;;;12.80;99.90;;;;;;5034881;28;20873;-57
2023/09/01 03:13:19;;;;;;;4.67;3.37;;;12.80;99.90;;;;;;5033833;28;20989;-57
2023/09/01 03:15:47;;;;;;;4.47;2.57;;;12.80;99.90;;;;;;5036975;28;20513;-58
2023/09/01 03:18:17;;;;;;;3.00;2.80;;;12.80;99.90;;;;;;5034237;28;20498;-58
2023/09/01 03:20:46;;;;;;;4.00;3.00;;;12.80;99.90;;;;;;5031619;28;20605;-58
2023/09/01 03:23:14;;;;;;;8.20;4.17;;;12.80;99.90;;;;;;5043695;28;20568;-57
2023/09/01 03:25:42;;;;;;;3.67;3.00;;;12.70;99.90;;;;;;5038437;28;20482;-57
2023/09/01 03:28:10;;;;;;;3.40;3.10;;;12.70;99.90;;;;;;5031338;28;20473;-57
2023/09/01 03:30:39;;;;;;;7.17;3.00;;;12.70;99.90;;;;;;5028505;28;21414;-58
2023/09/01 03:33:08;;;;;;;3.10;2.80;;;12.70;99.90;;;;;;5031577;28;20474;-58
2023/09/01 03:35:37;;;;;;;3.73;2.73;;;12.70;99.90;;;;;;5030254;28;21052;-57
2023/09/01 03:38:05;;;;;;;5.63;2.90;;;12.60;99.90;;;;;;5036332;28;20474;-57
2023/09/01 03:40:36;;;;;;;3.30;3.00;;;12.60;99.90;;;;;;5033650;28;20462;-57
2023/09/01 03:43:04;;;;;;;3.20;2.80;;;12.60;99.90;;;;;;5033807;28;20893;-56
2023/09/01 03:45:32;;;;;;;3.87;2.90;;;12.50;99.90;;;;;;5040596;28;20504;-58
2023/09/01 03:48:00;;;;;;;6.43;3.33;;;12.50;99.90;;;;;;5040010;28;20563;-58
2023/09/01 03:50:28;;;;;;;4.03;2.70;;;12.50;99.90;;;;;;5036474;28;20470;-58
2023/09/01 03:52:57;;;;;;;4.57;2.73;;;12.50;99.90;;;;;;5032432;28;20561;-58
2023/09/01 03:55:25;;;;;;;3.20;2.90;;;12.50;99.90;;;;;;5035880;28;20989;-58
2023/09/01 03:57:53;;;;;;;4.07;2.70;;;12.40;99.90;;;;;;5033887;28;20503;-58
2023/09/01 04:00:22;;;;;;;7.03;3.23;;;12.40;99.90;;;;;;5035433;28;20502;-57
2023/09/01 04:02:50;;;;;;;3.53;2.50;;;12.40;99.90;;;;;;5035576;28;20490;-56
2023/09/01 04:05:18;;;;;;;5.70;3.00;;;12.40;99.90;;;;;;5037089;28;20491;-58
2023/09/01 04:07:46;;;;;;;3.80;2.70;;;12.30;99.90;;;;;;5041101;28;20482;-57
2023/09/01 04:10:15;;;;;;;4.10;3.10;;;12.30;99.90;;;;;;5041701;28;20517;-58
2023/09/01 04:12:43;;;;;;;2.90;2.60;;;12.30;99.90;;;;;;5039205;28;21637;-57
2023/09/01 04:15:11;;;;;;;4.67;2.87;;;12.20;99.90;;;;;;5037240;28;21168;-57
2023/09/01 04:17:39;;;;;;;3.07;2.77;;;12.20;99.90;;;;;;5034557;28;20506;-58
2023/09/01 04:20:10;;;;;;;4.90;2.80;;;12.20;99.90;;;;;;5034846;28;20477;-57
2023/09/01 04:22:38;;;;;;;4.73;2.70;;;12.20;99.90;;;;;;5036038;28;20904;-58
2023/09/01 04:25:06;;;;;;;3.30;2.60;;;12.20;99.90;;;;;;5040275;28;20493;-57
2023/09/01 04:27:36;;;;;;;3.90;3.20;;;12.20;99.90;;;;;;5042722;28;20480;-58
2023/09/01 04:30:05;;;;;;;5.53;2.83;;;12.30;99.90;;;;;;5037570;28;20562;-58
2023/09/01 04:32:37;;;;;;;3.80;2.97;;;12.20;99.90;;;;;;5031964;28;20546;-58
2023/09/01 04:35:06;;;;;;;3.27;2.97;;;12.20;99.90;;;;;;5033057;28;20482;-58
2023/09/01 04:37:35;;;;;;;3.40;2.83;;;12.20;99.90;;;;;;5036227;28;20549;-56
2023/09/01 04:40:06;;;;;;;3.57;3.27;;;12.20;99.90;;;;;;5029873;28;20545;-58
2023/09/01 04:42:35;;;;;;;4.13;3.10;;;12.30;99.90;;;;;;5028802;28;20577;-57
2023/09/01 04:45:04;;;;;;;3.50;3.20;;;12.30;99.90;;;;;;5026639;28;20486;-57
2023/09/01 04:47:32;;;;;;;3.87;3.40;;;12.30;99.90;;;;;;5037294;28;20472;-58
2023/09/01 04:50:00;;;;;;;4.37;3.33;;;12.30;99.90;;;;;;5029276;28;20935;-58
2023/09/01 04:52:28;;;;;;;3.60;3.27;;;12.30;99.90;;;;;;5032909;28;20573;-58
2023/09/01 04:55:10;;;;;;;10.10;3.27;;;12.20;99.90;;;;;;5034165;28;20490;-58
2023/09/01 04:57:39;;;;;;;4.50;3.57;;;12.30;99.90;;;;;;5033930;28;20466;-58
2023/09/01 05:00:15;;;;;;;4.23;3.13;;;12.30;99.90;;;;;;5032127;28;21030;-58
2023/09/01 05:02:45;;;;;;;6.67;3.40;;;12.30;99.90;;;;;;5031198;28;20842;-58
2023/09/01 05:05:14;;;;;;;4.67;3.40;;;12.30;99.90;;;;;;5033882;28;20485;-58
2023/09/01 05:07:42;;;;;;;4.23;3.17;;;12.40;99.90;;;;;;5036503;28;20585;-58
2023/09/01 05:10:11;;;;;;;4.00;3.37;;;12.40;99.90;;;;;;5040625;28;20893;-58
2023/09/01 05:12:40;;;;;;;4.00;3.17;;;12.50;99.90;;;;;;5028378;28;20566;-57
2023/09/01 05:15:09;;;;;;;5.37;3.47;;;12.50;99.90;;;;;;5034045;28;20510;-57
2023/09/01 05:17:37;;;;;;;6.40;3.30;;;12.60;99.90;;;;;;5038877;28;21116;-57
2023/09/01 05:20:08;;;;;;;4.70;3.43;;;12.70;99.90;;;;;;5035987;28;20470;-57
2023/09/01 05:22:36;;;;;;;4.70;2.70;;;12.70;99.90;;;;;;5037691;28;20585;-58
2023/09/01 05:25:05;;;;;;;5.00;3.30;;;12.70;99.90;;;;;;5034776;28;20487;-58
2023/09/01 05:27:33;;;;;;;5.20;3.03;;;12.70;99.90;;;;;;5030953;28;20470;-57
2023/09/01 05:30:02;;;;;;;3.73;3.43;;;12.80;99.90;;;;;;5026497;28;20467;-58
2023/09/01 05:32:31;;;;;;;5.07;3.30;;;12.80;99.90;;;;;;5025527;28;20886;-58
2023/09/01 05:34:58;;;;;;;3.93;3.53;;;12.90;99.90;;;;;;5024598;28;21112;-58
2023/09/01 05:37:27;;;;;;;3.67;3.00;;;12.90;99.90;;;;;;5014203;28;20470;-58
2023/09/01 05:39:55;;;;;;;3.63;3.10;;;12.90;99.90;;;;;;5022644;28;20474;-58
2023/09/01 05:42:23;;;;;;;3.97;3.10;;;12.90;99.90;;;;;;5013877;28;20470;-57
2023/09/01 05:44:51;;;;;;;5.53;3.50;;;12.90;99.90;;;;;;5028166;28;22033;-58
2023/09/01 05:47:20;;;;;;;4.10;3.70;;;13.00;99.90;;;;;;5027572;28;20583;-57
2023/09/01 05:49:48;;;;;;;3.87;3.43;;;13.00;99.90;;;;;;5026096;28;20478;-58
2023/09/01 05:52:15;;;;;;;4.67;3.20;;;13.10;99.90;;;;;;5020485;28;20966;-58
2023/09/01 05:54:43;;;;;;;3.93;3.53;;;13.10;99.90;;;;;;5015588;28;20881;-57
2023/09/01 05:57:11;;;;;;;4.50;4.00;;;13.10;99.90;;;;;;5022389;28;20477;-57
2023/09/01 05:59:39;;;;;;;3.63;3.30;;;13.10;99.90;;;;;;5026010;28;21105;-56
2023/09/01 06:02:07;;;;;;;3.97;3.10;;;13.20;99.90;;;;;;5020894;28;20492;-56
2023/09/01 06:04:37;;;;;;;7.80;3.50;;;13.30;99.90;;;;;;5023740;28;21117;-57
2023/09/01 06:07:05;;;;;;;3.80;2.87;;;13.30;99.90;;;;;;5024407;28;20475;-56
2023/09/01 06:09:34;;;;;;;5.13;3.40;;;13.40;99.90;;;;;;5034706;28;20890;-57
2023/09/01 06:12:03;;;;;;;4.33;3.30;;;13.50;99.90;;;;;;5028180;28;20470;-57
2023/09/01 06:14:31;;;;;;;4.30;3.50;;;13.50;99.90;;;;;;5027041;28;20954;-58
2023/09/01 06:16:59;;;;;;;9.97;3.87;;;13.50;99.90;;;;;;5035695;28;20484;-57
2023/09/01 06:19:26;;;;;;;3.83;3.00;;;13.50;99.90;;;;;;5034419;28;20587;-57
2023/09/01 06:21:56;;;;;;;4.03;3.00;;;13.60;99.90;;;;;;5037753;28;20471;-60
2023/09/01 06:24:24;;;;;;;3.60;2.90;;;13.60;99.90;;;;;;5032507;28;21228;-61
2023/09/01 06:26:54;;;;;;;5.27;2.70;;;13.60;99.90;;;;;;5030766;28;20494;-60
2023/09/01 06:29:22;;;;;;;3.70;2.77;;;13.70;99.90;;;;;;5022502;28;20470;-59
2023/09/01 06:31:50;;;;;;;3.40;2.80;;;13.70;99.90;;;;;;5015906;28;20490;-60
2023/09/01 06:34:19;;;;;;;6.50;3.07;;;13.70;99.90;;;;;;5024233;28;20568;-58
2023/09/01 06:36:47;;;;;;;3.67;2.73;;;13.70;99.90;;;;;;5025965;28;20486;-60
2023/09/01 06:39:17;;;;;;;8.73;4.10;;;13.70;99.90;;;;;;5029012;28;20470;-60
2023/09/01 06:41:46;;;;;;;4.60;3.00;;;13.80;99.90;;;;;;5021973;28;20458;-58
2023/09/01 06:44:14;;;;;;;4.37;3.37;;;13.80;99.90;;;;;;5028155;28;20977;-60
2023/09/01 06:46:42;;;;;;;2.87;2.50;;;13.90;99.90;;;;;;5018256;28;20564;-60
2023/09/01 06:49:10;;;;;;;8.33;3.70;;;13.90;99.90;;;;;;5024857;28;20656;-60
2023/09/01 06:51:38;;;;;;;2.57;2.37;;;13.90;99.90;;;;;;5026287;28;20481;-59
2023/09/01 06:54:10;;;;;;;4.77;2.70;;;13.90;99.90;;;;;;5030657;28;20513;-59
2023/09/01 06:56:39;;;;;;;3.20;2.90;;;14.10;99.90;;;;;;5023084;28;20486;-61
2023/09/01 06:59:07;;;;;;;3.80;2.60;;;14.10;99.90;;;;;;5028437;28;20959;-59
2023/09/01 07:01:35;;;;;;;4.67;2.63;;;14.20;99.90;;;;;;5009673;28;20466;-61
2023/09/01 07:04:05;;;;;;;2.40;2.20;;;14.20;99.90;;;;;;5008435;28;20495;-59
2023/09/01 07:06:33;;;;;;;3.40;2.40;;;14.20;99.90;;;;;;5021604;28;21023;-59
2023/09/01 07:09:01;;;;;;;2.53;2.33;;;14.30;99.90;;;;;;5028752;28;20553;-57
2023/09/01 07:11:29;;;;;;;4.20;2.37;;;14.40;99.90;;;;;;5028605;28;20466;-59
2023/09/01 07:13:58;;;;;;;2.70;2.20;;;14.40;99.90;;;;;;5024114;28;20510;-58
2023/09/01 07:16:26;;;;;;;3.93;2.20;;;14.50;99.90;;;;;;5027988;28;20581;-59
2023/09/01 07:18:54;;;;;;;3.33;2.40;;;14.50;99.90;;;;;;5024290;28;20478;-59
2023/09/01 07:21:22;;;;;;;3.77;2.17;;;14.60;99.90;;;;;;5028099;28;20932;-59
2023/09/01 07:23:50;;;;;;;2.47;2.07;;;14.60;99.90;;;;;;5024099;28;20483;-61
2023/09/01 07:26:18;;;;;;;5.53;2.60;;;14.70;99.90;;;;;;5026899;28;20491;-60
2023/09/01 07:28:46;;;;;;;2.93;2.53;;;14.90;99.90;;;;;;5011931;28;21194;-58
2023/09/01 07:31:15;;;;;;;4.27;2.43;;;14.90;99.90;;;;;;5022696;28;20490;-57
2023/09/01 07:33:43;;;;;;;2.20;2.00;;;15.00;99.90;;;;;;5022407;28;20797;-58
2023/09/01 07:36:12;;;;;;;3.57;2.20;;;15.00;99.90;;;;;;5027137;28;20672;-57
2023/09/01 07:38:40;;;;;;;3.13;1.80;;;15.10;99.90;;;;;;5020771;28;20632;-57
2023/09/01 07:41:08;;;;;;;1.70;1.60;;;15.20;99.90;;;;;;5023138;28;20482;-58
2023/09/01 07:43:36;;;;;;;1.60;1.47;;;15.30;99.90;;;;;;5025635;28;20470;-57
2023/09/01 07:46:06;;;;;;;2.43;1.73;;;15.30;99.90;;;;;;5029760;28;20498;-58
2023/09/01 07:48:36;;;;;;;1.73;1.63;;;15.40;99.90;;;;;;5023687;28;20481;-57
2023/09/01 07:51:04;;;;;;;2.83;1.90;;;15.50;99.90;;;;;;5026465;28;20473;-57
2023/09/01 07:53:32;;;;;;;2.37;1.60;;;15.60;99.90;;;;;;5031118;28;20474;-58
2023/09/01 07:56:00;;;;;;;2.03;1.63;;;15.60;99.90;;;;;;5020915;28;20491;-57
2023/09/01 07:58:31;;;;;;;1.93;1.70;;;15.70;99.90;;;;;;5025051;28;20532;-58
2023/09/01 08:00:59;;;;;;;3.30;2.10;;;15.80;99.90;;;;;;5029302;28;20581;-57
2023/09/01 08:03:27;;;;;;;3.73;1.60;;;15.80;99.90;;;;;;5032730;28;20582;-57
2023/09/01 08:05:59;;;;;;;3.10;1.80;;;15.90;99.90;;;;;;5025710;28;20495;-58
2023/09/01 08:08:27;;;;;;;2.30;1.90;;;16.00;99.90;;;;;;5037418;28;20744;-60
2023/09/01 08:10:55;;;;;;;5.13;1.57;;;16.10;99.90;;;;;;5025745;28;20498;-58
2023/09/01 08:13:23;;;;;;;1.60;1.50;;;16.10;99.90;;;;;;5028697;28;20502;-58
2023/09/01 08:15:51;;;;;;;1.83;1.40;;;16.20;99.90;;;;;;5022650;28;20486;-56
2023/09/01 08:18:20;;;;;;;2.23;2.03;;;16.20;99.90;;;;;;5028759;28;21144;-57
2023/09/01 08:20:48;;;;;;;1.97;1.80;;;16.30;99.90;;;;;;5024234;28;20477;-59
2023/09/01 08:23:21;;;;;;;2.87;1.60;;;16.40;99.90;;;;;;5024697;28;20561;-58
2023/09/01 08:25:49;;;;;;;2.77;1.47;;;16.40;99.90;;;;;;5025398;28;21762;-56
2023/09/01 08:28:17;;;;;;;1.63;1.30;;;16.50;99.90;;;;;;5019875;28;21277;-60
2023/09/01 08:30:45;;;;;;;3.33;1.90;;;16.50;99.90;;;;;;5016557;28;20471;-58
2023/09/01 08:33:17;;;;;;;3.53;1.80;;;16.60;99.90;;;;;;5024147;28;20479;-56
2023/09/01 08:35:45;;;;;;;3.17;1.70;;;16.70;99.90;;;;;;5032556;28;20521;-58
2023/09/01 08:38:13;;;;;;;4.17;1.80;;;16.90;99.90;;;;;;5027919;28;20935;-57
2023/09/01 08:40:43;;;;;;;2.77;1.87;;;17.00;99.90;;;;;;5032396;28;20512;-58
2023/09/01 08:43:13;;;;;;;2.43;1.90;;;17.00;99.90;;;;;;5031997;28;20565;-58
2023/09/01 08:45:42;;;;;;;2.60;1.40;;;17.10;99.90;;;;;;5038424;28;20525;-58
2023/09/01 08:48:10;;;;;;;1.90;1.60;;;17.10;99.90;;;;;;5037263;28;20569;-58
2023/09/01 08:50:38;;;;;;;2.40;1.50;;;17.10;99.90;;;;;;5031350;28;20466;-58
2023/09/01 08:53:07;;;;;;;3.23;1.80;;;17.20;99.90;;;;;;5036511;28;20841;-60
2023/09/01 08:55:35;;;;;;;3.83;1.50;;;17.30;99.90;;;;;;5040150;28;20581;-58
2023/09/01 08:58:04;;;;;;;2.20;1.47;;;17.30;99.90;;;;;;5022032;28;20474;-57
2023/09/01 09:00:32;;;;;;;2.90;1.60;;;17.40;99.90;;;;;;5023595;28;20493;-56
2023/09/01 09:03:00;;;;;;;3.13;1.60;;;17.40;99.90;;;;;;5021693;28;20482;-58
2023/09/01 09:05:35;;;;;;;2.47;1.67;;;17.50;99.90;;;;;;5023679;28;21039;-57
2023/09/01 09:08:07;;;;;;;2.73;1.53;;;17.50;99.90;;;;;;5031331;28;20478;-58
2023/09/01 09:10:35;;;;;;;2.57;1.70;;;17.60;99.90;;;;;;5025735;28;20719;-58
2023/09/01 09:13:21;;;;;;;3.23;1.73;;;17.70;99.90;;;;;;5019741;28;20528;-58
2023/09/01 09:16:09;;;;;;;2.03;1.80;;;17.80;99.90;;;;;;5024836;28;21273;-58
2023/09/01 09:18:39;;;;;;;1.90;1.37;;;17.80;99.90;;;;;;5028104;28;20488;-57
2023/09/01 09:21:23;;;;;;;2.47;1.80;;;17.90;99.90;;;;;;5022956;28;20933;-58
2023/09/01 09:23:51;;;;;;;2.27;1.60;;;18.00;99.90;;;;;;5030713;28;20470;-58
2023/09/01 09:26:31;;;;;;;2.53;1.67;;;18.00;99.90;;;;;;5030409;28;20493;-57
2023/09/01 09:29:07;;;;;;;1.63;1.23;;;18.10;99.90;;;;;;5027170;28;20477;-57
2023/09/01 09:31:37;;;;;;;2.10;1.67;;;18.10;99.90;;;;;;5029099;28;20482;-62
2023/09/01 09:34:22;;;;;;;1.77;1.40;;;18.10;99.90;;;;;;5026787;28;20512;-58
2023/09/01 09:36:50;;;;;;;1.83;1.73;;;18.20;99.90;;;;;;5018967;28;21372;-62
2023/09/01 09:39:25;;;;;;;3.10;1.57;;;18.30;99.90;;;;;;5031257;28;20923;-62
2023/09/01 09:41:53;;;;;;;1.73;1.50;;;18.30;99.90;;;;;;5025433;28;21116;-61
2023/09/01 09:44:27;;;;;;;2.30;1.50;;;18.40;99.90;;;;;;5031660;28;20606;-60
2023/09/01 09:46:55;;;;;;;2.73;1.47;;;18.50;99.90;;;;;;5026383;28;20603;-60
2023/09/01 09:49:24;;;;;;;2.23;1.70;;;18.50;99.90;;;;;;5025554;28;20997;-60
2023/09/01 09:51:53;;;;;;;2.90;1.77;;;18.50;99.90;;;;;;5028047;28;20482;-61
2023/09/01 09:54:22;;;;;;;2.27;1.33;;;18.60;99.90;;;;;;5024446;28;20580;-61
2023/09/01 09:56:51;;;;;;;2.23;1.73;;;18.70;99.90;;;;;;5022206;28;21110;-60
2023/09/01 09:59:30;;;;;;;5.30;1.93;;;18.80;99.90;;;;;;5031015;28;20475;-59
2023/09/01 10:02:02;;;;;;;2.30;1.60;;;18.90;99.90;;;;;;5025761;28;20474;-60
2023/09/01 10:04:32;;;;;;;1.80;1.70;;;19.00;99.90;;;;;;5022022;28;20490;-60
2023/09/01 10:07:00;;;;;;;3.00;1.70;;;19.10;99.90;;;;;;5030325;28;20597;-61
2023/09/01 10:09:30;;;;;;;2.13;1.80;;;19.10;99.90;;;;;;5027535;28;20565;-61
2023/09/01 10:11:59;;;;;;;1.80;1.40;;;19.20;99.90;;;;;;5022136;28;20476;-61
2023/09/01 10:14:29;;;;;;;1.77;1.20;;;19.30;99.90;;;;;;5019608;28;20526;-61
2023/09/01 10:16:59;;;;;;;1.73;1.40;;;19.30;99.90;;;;;;5023068;28;20486;-59
2023/09/01 10:19:28;;;;;;;2.03;1.77;;;19.20;99.90;;;;;;5015534;28;20486;-61
2023/09/01 10:21:56;;;;;;;3.03;1.40;;;19.20;99.90;;;;;;5015621;28;20986;-58
2023/09/01 10:24:24;;;;;;;1.83;1.40;;;19.20;99.90;;;;;;5026224;28;20974;-58
2023/09/01 10:27:07;;;;;;;1.53;1.20;;;19.20;99.90;;;;;;5019838;28;20506;-58
2023/09/01 10:29:38;;;;;;;2.33;1.63;;;19.00;99.90;;;;;;5018175;28;21511;-58
2023/09/01 10:32:16;;;;;;;1.33;1.17;;;19.00;99.90;;;;;;5026035;28;20466;-57
2023/09/01 10:34:52;;;;;;;2.60;1.57;;;18.90;99.90;;;;;;5023915;28;20526;-57
2023/09/01 10:37:28;;;;;;;2.70;1.33;;;18.90;99.90;;;;;;5022888;28;20647;-59
2023/09/01 10:39:56;;;;;;;1.40;1.30;;;18.90;99.90;;;;;;5015689;28;20545;-57
2023/09/01 10:42:40;;;;;;;2.13;1.57;;;19.00;99.90;;;;;;5022244;28;20667;-59
2023/09/01 10:45:14;;;;;;;2.90;1.70;;;18.90;99.90;;;;;;5026721;28;20490;-59
2023/09/01 10:47:45;;;;;;;2.43;1.70;;;18.90;99.90;;;;;;5021299;28;21381;-58
2023/09/01 10:50:14;;;;;;;2.77;1.70;;;18.90;99.90;;;;;;5026595;28;20780;-59
2023/09/01 10:52:44;;;;;;;1.30;1.20;;;18.80;99.90;;;;;;5026645;28;20467;-59
2023/09/01 10:55:12;;;;;;;2.17;1.60;;;18.80;99.90;;;;;;5021711;28;20482;-59
2023/09/01 10:57:42;;;;;;;2.73;1.40;;;18.80;99.90;;;;;;5023988;28;20470;-57
2023/09/01 11:00:29;;;;;;;1.70;1.40;;;18.80;99.90;;;;;;5026772;28;20517;-58
2023/09/01 11:03:28;;;;;;;3.33;1.80;;;18.70;99.90;;;;;;5026647;28;20550;-57
2023/09/01 11:05:56;;;;;;;1.80;1.50;;;18.70;99.90;;;;;;5027843;28;20479;-57
2023/09/01 11:08:25;;;;;;;1.63;1.53;;;18.70;99.90;;;;;;5025030;28;20645;-57
2023/09/01 11:10:55;;;;;;;2.50;1.90;;;18.70;99.90;;;;;;5027310;28;20587;-57
2023/09/01 11:13:25;;;;;;;3.33;1.77;;;18.80;99.90;;;;;;5023645;28;21065;-57
2023/09/01 11:15:55;;;;;;;2.07;1.63;;;19.00;99.90;;;;;;5023226;28;20566;-58
2023/09/01 11:18:24;;;;;;;1.50;1.33;;;19.10;99.90;;;;;;5021830;28;20484;-58
2023/09/01 11:20:54;;;;;;;1.70;1.60;;;19.20;99.90;;;;;;5023630;28;20466;-56
2023/09/01 11:23:24;;;;;;;1.97;1.70;;;19.30;99.90;;;;;;5018497;28;21488;-57
2023/09/01 11:25:56;;;;;;;1.70;1.57;;;19.40;99.90;;;;;;5016477;28;20500;-57
2023/09/01 11:28:24;;;;;;;1.90;1.43;;;19.60;99.90;;;;;;5028246;28;20476;-58
2023/09/01 11:30:55;;;;;;;2.20;1.37;;;19.70;99.90;;;;;;5033378;28;20909;-57
2023/09/01 11:33:24;;;;;;;2.20;1.23;;;20.00;99.90;;;;;;5035078;28;20468;-58
2023/09/01 11:36:04;;;;;;;2.23;1.53;;;20.20;99.90;;;;;;5028497;28;20494;-57
2023/09/01 11:38:33;;;;;;;2.70;1.60;;;20.40;99.90;;;;;;5028534;28;20559;-57
2023/09/01 11:41:03;;;;;;;3.43;1.53;;;20.60;99.90;;;;;;5020818;28;20468;-56
2023/09/01 11:43:32;;;;;;;1.80;1.57;;;20.80;99.90;;;;;;5028736;28;20583;-57
2023/09/01 11:46:03;;;;;;;2.00;1.37;;;20.90;99.90;;;;;;5032518;28;21346;-57
2023/09/01 11:48:31;;;;;;;1.83;1.20;;;21.00;99.90;;;;;;5035045;28;20558;-62
2023/09/01 11:51:00;;;;;;;3.10;1.20;;;21.10;99.90;;;;;;5030267;28;20547;-58
2023/09/01 11:53:29;;;;;;;1.40;1.20;;;21.10;99.90;;;;;;5031084;28;20486;-57
2023/09/01 11:55:58;;;;;;;1.50;1.13;;;21.00;99.90;;;;;;5037264;28;20485;-57
2023/09/01 11:58:27;;;;;;;2.03;1.50;;;20.90;99.90;;;;;;5035419;28;20556;-58
2023/09/01 12:00:55;;;;;;;1.93;1.20;;;21.00;99.90;;;;;;5030621;28;20576;-58
2023/09/01 12:03:24;;;;;;;1.53;1.23;;;21.10;99.90;;;;;;5032373;28;20584;-58
2023/09/01 12:05:52;;;;;;;3.57;1.47;;;21.20;99.90;;;;;;5033385;28;20503;-58
2023/09/01 12:08:25;;;;;;;2.07;1.60;;;21.40;99.90;;;;;;5029778;28;20474;-58
2023/09/01 12:11:05;;;;;;;1.60;1.40;;;21.50;99.90;;;;;;5034521;28;20493;-57
2023/09/01 12:13:33;;;;;;;2.67;1.90;;;21.60;99.90;;;;;;5037231;28;20480;-57
2023/09/01 12:16:02;;;;;;;2.03;1.17;;;21.80;99.90;;;;;;5035942;28;20515;-59
2023/09/01 12:18:34;;;;;;;1.70;1.20;;;21.90;99.90;;;;;;5032386;28;20470;-57
2023/09/01 12:21:04;;;;;;;1.67;1.40;;;21.90;99.90;;;;;;5029768;28;20539;-57
2023/09/01 12:23:33;;;;;;;1.87;1.50;;;21.90;99.90;;;;;;5039314;28;20929;-57
2023/09/01 12:26:02;;;;;;;1.90;1.37;;;21.90;99.90;;;;;;5033106;28;21064;-57
2023/09/01 12:28:31;;;;;;;1.27;1.00;;;22.00;99.90;;;;;;5039226;28;20526;-60
2023/09/01 12:31:00;;;;;;;4.27;1.20;;;22.10;99.90;;;;;;5036256;28;20581;-58
2023/09/01 12:33:28;;;;;;;1.77;1.50;;;22.30;99.90;;;;;;5035799;28;20477;-57
2023/09/01 12:35:59;;;;;;;1.40;1.30;;;22.40;99.90;;;;;;5032493;28;21610;-60
2023/09/01 12:38:27;;;;;;;2.57;1.63;;;22.50;99.90;;;;;;5041549;28;20501;-59
2023/09/01 12:40:56;;;;;;;1.20;1.10;;;22.70;99.90;;;;;;5040294;28;20557;-58
2023/09/01 12:43:24;;;;;;;1.47;1.20;;;22.90;99.90;;;;;;5036049;28;20497;-58
2023/09/01 12:45:52;;;;;;;2.93;1.47;;;23.10;99.90;;;;;;5037412;28;20490;-58
2023/09/01 12:48:20;;;;;;;2.03;1.30;;;23.20;99.90;;;;;;5041360;28;20724;-59
2023/09/01 12:50:49;;;;;;;2.33;1.50;;;23.50;99.90;;;;;;5039205;28;21129;-59
2023/09/01 12:53:19;;;;;;;2.00;1.57;;;23.70;99.90;;;;;;5037391;28;20537;-59
2023/09/01 12:55:48;;;;;;;2.63;1.30;;;23.60;99.90;;;;;;5034998;28;20523;-59
2023/09/01 12:58:16;;;;;;;2.37;1.50;;;23.40;99.90;;;;;;5031844;28;20524;-59
2023/09/01 13:00:45;;;;;;;1.60;1.40;;;23.40;99.90;;;;;;5036607;28;20783;-58